createdAt,value
2018-11-27T00:00:36.962Z,967.78
2018-11-27T00:01:36.951Z,967.83
2018-11-27T00:02:36.933Z,967.85
2018-11-27T00:03:36.919Z,967.82
2018-11-27T00:04:36.907Z,967.84
2018-11-27T00:05:36.891Z,967.86
2018-11-27T00:06:36.877Z,967.84
2018-11-27T00:07:36.869Z,967.88
2018-11-27T00:08:36.848Z,967.87
2018-11-27T00:09:36.839Z,967.85
2018-11-27T00:10:36.822Z,967.89
2018-11-27T00:11:36.803Z,967.89
2018-11-27T00:12:36.790Z,967.91
2018-11-27T00:13:36.776Z,967.93
2018-11-27T00:14:36.763Z,967.96
2018-11-27T00:15:36.750Z,967.97
2018-11-27T00:16:36.735Z,967.97
2018-11-27T00:17:36.720Z,967.94
2018-11-27T00:18:36.704Z,967.97
2018-11-27T00:19:36.692Z,967.96
2018-11-27T00:20:36.676Z,967.97
2018-11-27T00:21:36.663Z,967.99
2018-11-27T00:22:36.651Z,968.00
2018-11-27T00:23:36.638Z,968.03
2018-11-27T00:24:36.622Z,968.01
2018-11-27T00:25:36.606Z,968.03
2018-11-27T00:26:36.593Z,968.02
2018-11-27T00:27:36.579Z,968.06
2018-11-27T00:28:36.563Z,968.11
2018-11-27T00:29:36.549Z,968.10
2018-11-27T00:30:36.535Z,968.07
2018-11-27T00:31:36.520Z,968.07
2018-11-27T00:32:36.513Z,968.12
2018-11-27T00:33:36.491Z,968.09
2018-11-27T00:34:36.477Z,968.13
2018-11-27T00:35:36.464Z,968.13
2018-11-27T00:36:36.449Z,968.14
2018-11-27T00:37:36.436Z,968.11
2018-11-27T00:38:36.419Z,968.13
2018-11-27T00:39:36.406Z,968.14
2018-11-27T00:40:36.392Z,968.16
2018-11-27T00:41:36.376Z,968.18
2018-11-27T00:42:36.363Z,968.18
2018-11-27T00:43:36.355Z,968.20
2018-11-27T00:44:36.336Z,968.13
2018-11-27T00:45:36.330Z,968.20
2018-11-27T00:46:36.305Z,968.20
2018-11-27T00:47:36.292Z,968.16
2018-11-27T00:48:36.278Z,968.22
2018-11-27T00:49:36.261Z,968.22
2018-11-27T00:50:36.248Z,968.16
2018-11-27T00:51:36.233Z,968.21
2018-11-27T00:52:36.220Z,968.20
2018-11-27T00:53:36.206Z,968.19
2018-11-27T00:54:36.194Z,968.20
2018-11-27T00:55:36.178Z,968.18
2018-11-27T00:56:36.164Z,968.21
2018-11-27T00:57:36.146Z,968.19
2018-11-27T00:58:36.132Z,968.22
2018-11-27T00:59:36.120Z,968.22
2018-11-27T01:00:36.107Z,968.23
2018-11-27T01:01:36.090Z,968.27
2018-11-27T01:02:36.076Z,968.26
2018-11-27T01:03:36.064Z,968.32
2018-11-27T01:04:36.050Z,968.30
2018-11-27T01:05:36.033Z,968.29
2018-11-27T01:06:36.018Z,968.37
2018-11-27T01:07:36.004Z,968.37
2018-11-27T01:08:35.990Z,968.34
2018-11-27T01:09:35.974Z,968.40
2018-11-27T01:10:35.962Z,968.40
2018-11-27T01:11:35.946Z,968.37
2018-11-27T01:12:35.931Z,968.36
2018-11-27T01:13:35.917Z,968.40
2018-11-27T01:14:35.908Z,968.36
2018-11-27T01:15:35.891Z,968.39
2018-11-27T01:16:35.879Z,968.40
2018-11-27T01:17:35.860Z,968.41
2018-11-27T01:18:35.846Z,968.39
2018-11-27T01:19:35.839Z,968.47
2018-11-27T01:20:35.818Z,968.48
2018-11-27T01:21:35.806Z,968.48
2018-11-27T01:22:35.791Z,968.49
2018-11-27T01:23:35.777Z,968.53
2018-11-27T01:24:35.763Z,968.51
2018-11-27T01:25:35.747Z,968.51
2018-11-27T01:26:35.735Z,968.52
2018-11-27T01:27:35.716Z,968.51
2018-11-27T01:28:35.702Z,968.58
2018-11-27T01:29:35.686Z,968.56
2018-11-27T01:30:35.671Z,968.58
2018-11-27T01:31:35.657Z,968.61
2018-11-27T01:32:35.644Z,968.54
2018-11-27T01:33:35.629Z,968.60
2018-11-27T01:34:35.614Z,968.61
2018-11-27T01:35:35.600Z,968.61
2018-11-27T01:36:35.590Z,968.65
2018-11-27T01:37:35.571Z,968.62
2018-11-27T01:38:35.556Z,968.64
2018-11-27T01:39:35.541Z,968.67
2018-11-27T01:40:35.528Z,968.68
2018-11-27T01:41:35.511Z,968.66
2018-11-27T01:42:35.499Z,968.68
2018-11-27T01:43:35.485Z,968.68
2018-11-27T01:44:35.469Z,968.67
2018-11-27T01:45:35.456Z,968.69
2018-11-27T01:46:35.442Z,968.68
2018-11-27T01:47:35.426Z,968.69
2018-11-27T01:48:35.413Z,968.73
2018-11-27T01:49:35.400Z,968.68
2018-11-27T01:50:35.383Z,968.73
2018-11-27T01:51:35.369Z,968.73
2018-11-27T01:52:35.355Z,968.72
2018-11-27T01:53:35.341Z,968.72
2018-11-27T01:54:35.326Z,968.72
2018-11-27T01:55:35.314Z,968.71
2018-11-27T01:56:35.298Z,968.73
2018-11-27T01:57:35.283Z,968.76
2018-11-27T01:58:35.269Z,968.77
2018-11-27T01:59:35.256Z,968.71
2018-11-27T02:00:35.240Z,968.69
2018-11-27T02:01:35.225Z,968.76
2018-11-27T02:02:35.212Z,968.70
2018-11-27T02:03:35.197Z,968.71
2018-11-27T02:04:35.183Z,968.73
2018-11-27T02:05:35.168Z,968.71
2018-11-27T02:06:35.154Z,968.75
2018-11-27T02:07:35.140Z,968.78
2018-11-27T02:08:35.125Z,968.78
2018-11-27T02:09:35.112Z,968.76
2018-11-27T02:10:35.096Z,968.78
2018-11-27T02:11:35.082Z,968.76
2018-11-27T02:12:35.069Z,968.79
2018-11-27T02:13:35.052Z,968.79
2018-11-27T02:14:35.040Z,968.77
2018-11-27T02:15:35.024Z,968.79
2018-11-27T02:16:35.010Z,968.82
2018-11-27T02:17:34.996Z,968.83
2018-11-27T02:18:34.982Z,968.83
2018-11-27T02:19:34.969Z,968.84
2018-11-27T02:20:34.956Z,968.87
2018-11-27T02:21:34.937Z,968.84
2018-11-27T02:22:34.923Z,968.84
2018-11-27T02:23:34.909Z,968.83
2018-11-27T02:24:34.895Z,968.83
2018-11-27T02:25:34.878Z,968.84
2018-11-27T02:26:34.865Z,968.85
2018-11-27T02:27:34.852Z,968.91
2018-11-27T02:28:34.837Z,968.87
2018-11-27T02:29:34.822Z,968.91
2018-11-27T02:30:34.808Z,968.89
2018-11-27T02:31:34.793Z,968.91
2018-11-27T02:32:34.780Z,968.95
2018-11-27T02:33:34.766Z,968.95
2018-11-27T02:34:34.749Z,968.95
2018-11-27T02:35:34.737Z,968.96
2018-11-27T02:36:34.722Z,968.95
2018-11-27T02:37:34.706Z,968.94
2018-11-27T02:38:34.693Z,968.96
2018-11-27T02:39:34.679Z,968.98
2018-11-27T02:40:34.663Z,968.97
2018-11-27T02:41:34.649Z,968.99
2018-11-27T02:42:34.634Z,968.96
2018-11-27T02:43:34.619Z,969.00
2018-11-27T02:44:34.608Z,968.98
2018-11-27T02:45:34.591Z,968.99
2018-11-27T02:46:34.577Z,968.96
2018-11-27T02:47:34.566Z,968.97
2018-11-27T02:48:34.549Z,968.95
2018-11-27T02:49:34.533Z,968.98
2018-11-27T02:50:34.522Z,968.98
2018-11-27T02:51:34.504Z,968.99
2018-11-27T02:52:34.489Z,969.02
2018-11-27T02:53:34.475Z,969.01
2018-11-27T02:54:34.462Z,969.01
2018-11-27T02:55:34.448Z,969.08
2018-11-27T02:56:34.437Z,969.07
2018-11-27T02:57:34.416Z,969.08
2018-11-27T02:58:34.406Z,969.08
2018-11-27T02:59:34.389Z,969.07
2018-11-27T03:00:34.375Z,969.08
2018-11-27T03:01:34.359Z,969.10
2018-11-27T03:02:34.344Z,969.10
2018-11-27T03:03:34.334Z,969.08
2018-11-27T03:04:34.316Z,969.09
2018-11-27T03:05:34.302Z,969.09
2018-11-27T03:06:34.289Z,969.13
2018-11-27T03:07:34.275Z,969.17
2018-11-27T03:08:34.257Z,969.14
2018-11-27T03:09:34.244Z,969.16
2018-11-27T03:10:34.227Z,969.17
2018-11-27T03:11:34.214Z,969.18
2018-11-27T03:12:34.202Z,969.16
2018-11-27T03:13:34.184Z,969.22
2018-11-27T03:14:34.174Z,969.22
2018-11-27T03:15:34.156Z,969.21
2018-11-27T03:16:34.141Z,969.24
2018-11-27T03:17:34.127Z,969.26
2018-11-27T03:18:34.114Z,969.29
2018-11-27T03:19:34.101Z,969.32
2018-11-27T03:20:34.085Z,969.28
2018-11-27T03:21:34.068Z,969.33
2018-11-27T03:22:34.056Z,969.29
2018-11-27T03:23:34.039Z,969.29
2018-11-27T03:24:34.026Z,969.27
2018-11-27T03:25:34.012Z,969.29
2018-11-27T03:26:33.996Z,969.31
2018-11-27T03:27:33.982Z,969.37
2018-11-27T03:28:33.967Z,969.39
2018-11-27T03:29:33.955Z,969.38
2018-11-27T03:30:33.938Z,969.37
2018-11-27T03:31:33.926Z,969.40
2018-11-27T03:32:33.910Z,969.38
2018-11-27T03:33:33.894Z,969.37
2018-11-27T03:34:33.879Z,969.35
2018-11-27T03:35:33.865Z,969.39
2018-11-27T03:36:33.851Z,969.42
2018-11-27T03:37:33.833Z,969.44
2018-11-27T03:38:33.819Z,969.39
2018-11-27T03:39:33.804Z,969.40
2018-11-27T03:40:33.795Z,969.38
2018-11-27T03:41:33.776Z,969.39
2018-11-27T03:42:33.760Z,969.38
2018-11-27T03:43:33.745Z,969.40
2018-11-27T03:44:33.733Z,969.42
2018-11-27T03:45:33.715Z,969.37
2018-11-27T03:46:33.703Z,969.42
2018-11-27T03:47:33.688Z,969.41
2018-11-27T03:48:33.674Z,969.44
2018-11-27T03:49:33.659Z,969.46
2018-11-27T03:50:33.644Z,969.45
2018-11-27T03:51:33.630Z,969.47
2018-11-27T03:52:33.615Z,969.44
2018-11-27T03:53:33.600Z,969.43
2018-11-27T03:54:33.583Z,969.47
2018-11-27T03:55:33.569Z,969.48
2018-11-27T03:56:33.555Z,969.48
2018-11-27T03:57:33.540Z,969.46
2018-11-27T03:58:33.526Z,969.49
2018-11-27T03:59:33.512Z,969.49
2018-11-27T04:00:33.501Z,969.51
2018-11-27T04:01:33.482Z,969.49
2018-11-27T04:02:33.467Z,969.48
2018-11-27T04:03:33.452Z,969.46
2018-11-27T04:04:33.439Z,969.48
2018-11-27T04:05:33.424Z,969.49
2018-11-27T04:06:33.409Z,969.51
2018-11-27T04:07:33.394Z,969.49
2018-11-27T04:08:33.381Z,969.53
2018-11-27T04:09:33.369Z,969.52
2018-11-27T04:10:33.347Z,969.58
2018-11-27T04:11:33.335Z,969.58
2018-11-27T04:12:33.319Z,969.56
2018-11-27T04:13:33.307Z,969.56
2018-11-27T04:14:33.288Z,969.60
2018-11-27T04:15:33.276Z,969.58
2018-11-27T04:16:33.260Z,969.61
2018-11-27T04:17:33.245Z,969.60
2018-11-27T04:18:33.231Z,969.64
2018-11-27T04:19:33.219Z,969.62
2018-11-27T04:20:33.208Z,969.66
2018-11-27T04:21:33.189Z,969.66
2018-11-27T04:22:33.170Z,969.68
2018-11-27T04:23:33.158Z,969.66
2018-11-27T04:24:33.142Z,969.68
2018-11-27T04:25:33.129Z,969.68
2018-11-27T04:26:33.115Z,969.67
2018-11-27T04:27:33.098Z,969.73
2018-11-27T04:28:33.083Z,969.70
2018-11-27T04:29:33.069Z,969.74
2018-11-27T04:30:33.054Z,969.70
2018-11-27T04:31:33.038Z,969.69
2018-11-27T04:32:33.024Z,969.72
2018-11-27T04:33:33.008Z,969.73
2018-11-27T04:34:32.997Z,969.71
2018-11-27T04:35:32.980Z,969.70
2018-11-27T04:36:32.970Z,969.74
2018-11-27T04:37:32.950Z,969.75
2018-11-27T04:38:32.937Z,969.79
2018-11-27T04:39:32.924Z,969.78
2018-11-27T04:40:32.920Z,969.78
2018-11-27T04:41:32.893Z,969.78
2018-11-27T04:42:32.876Z,969.80
2018-11-27T04:43:32.863Z,969.82
2018-11-27T04:44:32.847Z,969.83
2018-11-27T04:45:32.837Z,969.85
2018-11-27T04:46:32.817Z,969.84
2018-11-27T04:47:32.805Z,969.84
2018-11-27T04:48:32.792Z,969.91
2018-11-27T04:49:32.773Z,969.87
2018-11-27T04:50:32.759Z,969.85
2018-11-27T04:51:32.744Z,969.91
2018-11-27T04:52:32.730Z,969.86
2018-11-27T04:53:32.714Z,969.89
2018-11-27T04:54:32.702Z,969.88
2018-11-27T04:55:32.686Z,969.93
2018-11-27T04:56:32.671Z,969.90
2018-11-27T04:57:32.655Z,969.92
2018-11-27T04:58:32.643Z,969.86
2018-11-27T04:59:32.625Z,969.92
2018-11-27T05:00:32.612Z,969.92
2018-11-27T05:01:32.594Z,969.93
2018-11-27T05:02:32.585Z,969.97
2018-11-27T05:03:32.566Z,969.94
2018-11-27T05:04:32.550Z,969.93
2018-11-27T05:05:32.535Z,969.94
2018-11-27T05:06:32.519Z,969.97
2018-11-27T05:07:32.504Z,969.96
2018-11-27T05:08:32.491Z,969.98
2018-11-27T05:09:32.477Z,970.02
2018-11-27T05:10:32.461Z,970.01
2018-11-27T05:11:32.445Z,969.97
2018-11-27T05:12:32.431Z,969.98
2018-11-27T05:13:32.416Z,969.96
2018-11-27T05:14:32.403Z,969.97
2018-11-27T05:15:32.386Z,969.99
2018-11-27T05:16:32.371Z,970.03
2018-11-27T05:17:32.356Z,970.09
2018-11-27T05:18:32.341Z,970.13
2018-11-27T05:19:32.327Z,970.13
2018-11-27T05:20:32.311Z,970.20
2018-11-27T05:21:32.297Z,970.21
2018-11-27T05:22:32.282Z,970.22
2018-11-27T05:23:32.265Z,970.25
2018-11-27T05:24:32.252Z,970.22
2018-11-27T05:25:32.236Z,970.22
2018-11-27T05:26:32.222Z,970.25
2018-11-27T05:27:32.207Z,970.30
2018-11-27T05:28:32.191Z,970.31
2018-11-27T05:29:32.178Z,970.38
2018-11-27T05:30:32.164Z,970.36
2018-11-27T05:31:32.149Z,970.39
2018-11-27T05:32:32.131Z,970.45
2018-11-27T05:33:32.116Z,970.42
2018-11-27T05:34:32.119Z,970.43
2018-11-27T05:35:32.089Z,970.44
2018-11-27T05:36:32.073Z,970.40
2018-11-27T05:37:32.057Z,970.43
2018-11-27T05:38:32.043Z,970.44
2018-11-27T05:39:32.028Z,970.44
2018-11-27T05:40:32.015Z,970.45
2018-11-27T05:41:31.998Z,970.45
2018-11-27T05:42:31.985Z,970.49
2018-11-27T05:43:31.970Z,970.51
2018-11-27T05:44:31.955Z,970.50
2018-11-27T05:45:31.939Z,970.52
2018-11-27T05:46:31.925Z,970.52
2018-11-27T05:47:31.906Z,970.52
2018-11-27T05:48:31.894Z,970.51
2018-11-27T05:49:31.878Z,970.50
2018-11-27T05:50:31.865Z,970.58
2018-11-27T05:51:31.849Z,970.55
2018-11-27T05:52:31.833Z,970.56
2018-11-27T05:53:31.817Z,970.60
2018-11-27T05:54:31.802Z,970.59
2018-11-27T05:55:31.787Z,970.59
2018-11-27T05:56:31.775Z,970.60
2018-11-27T05:57:31.758Z,970.61
2018-11-27T05:58:31.744Z,970.62
2018-11-27T05:59:31.730Z,970.62
2018-11-27T06:00:31.713Z,970.65
2018-11-27T06:01:31.700Z,970.67
2018-11-27T06:02:31.686Z,970.68
2018-11-27T06:03:31.671Z,970.71
2018-11-27T06:04:31.657Z,970.73
2018-11-27T06:05:31.640Z,970.75
2018-11-27T06:06:31.625Z,970.79
2018-11-27T06:07:31.611Z,970.78
2018-11-27T06:08:31.600Z,970.85
2018-11-27T06:09:31.581Z,970.83
2018-11-27T06:10:31.566Z,970.84
2018-11-27T06:11:31.556Z,970.88
2018-11-27T06:12:31.538Z,970.87
2018-11-27T06:13:31.523Z,970.90
2018-11-27T06:14:31.507Z,970.90
2018-11-27T06:15:32.664Z,970.93
2018-11-27T06:16:31.478Z,970.94
2018-11-27T06:17:31.463Z,970.94
2018-11-27T06:18:31.449Z,970.91
2018-11-27T06:19:31.432Z,970.89
2018-11-27T06:20:31.420Z,970.87
2018-11-27T06:21:31.405Z,970.93
2018-11-27T06:22:31.387Z,970.94
2018-11-27T06:23:31.373Z,970.96
2018-11-27T06:24:31.362Z,970.95
2018-11-27T06:25:31.343Z,970.92
2018-11-27T06:26:31.331Z,970.97
2018-11-27T06:27:31.316Z,970.97
2018-11-27T06:28:31.299Z,970.94
2018-11-27T06:29:31.282Z,970.95
2018-11-27T06:30:31.273Z,971.00
2018-11-27T06:31:31.256Z,971.01
2018-11-27T06:32:31.239Z,971.03
2018-11-27T06:33:31.221Z,971.03
2018-11-27T06:34:31.207Z,971.06
2018-11-27T06:35:31.193Z,971.07
2018-11-27T06:36:31.177Z,971.10
2018-11-27T06:37:31.161Z,971.12
2018-11-27T06:38:31.149Z,971.11
2018-11-27T06:39:31.133Z,971.11
2018-11-27T06:40:31.119Z,971.12
2018-11-27T06:41:31.101Z,971.10
2018-11-27T06:42:31.088Z,971.11
2018-11-27T06:43:31.072Z,971.14
2018-11-27T06:44:31.057Z,971.16
2018-11-27T06:45:31.044Z,971.16
2018-11-27T06:46:31.028Z,971.17
2018-11-27T06:47:31.014Z,971.24
2018-11-27T06:48:30.997Z,971.27
2018-11-27T06:49:30.982Z,971.30
2018-11-27T06:50:30.966Z,971.27
2018-11-27T06:51:30.954Z,971.27
2018-11-27T06:52:30.938Z,971.26
2018-11-27T06:53:30.930Z,971.27
2018-11-27T06:54:30.906Z,971.22
2018-11-27T06:55:30.891Z,971.24
2018-11-27T06:56:30.878Z,971.27
2018-11-27T06:57:30.861Z,971.29
2018-11-27T06:58:30.849Z,971.31
2018-11-27T06:59:30.832Z,971.34
2018-11-27T07:00:30.818Z,971.36
2018-11-27T07:01:30.801Z,971.37
2018-11-27T07:02:30.786Z,971.38
2018-11-27T07:03:30.772Z,971.45
2018-11-27T07:04:30.757Z,971.43
2018-11-27T07:05:30.742Z,971.44
2018-11-27T07:06:30.731Z,971.40
2018-11-27T07:07:30.714Z,971.43
2018-11-27T07:08:30.700Z,971.47
2018-11-27T07:09:30.684Z,971.47
2018-11-27T07:10:30.669Z,971.50
2018-11-27T07:11:30.653Z,971.49
2018-11-27T07:12:30.640Z,971.50
2018-11-27T07:13:30.623Z,971.51
2018-11-27T07:14:30.607Z,971.51
2018-11-27T07:15:30.596Z,971.50
2018-11-27T07:16:30.582Z,971.58
2018-11-27T07:17:30.564Z,971.56
2018-11-27T07:18:30.551Z,971.61
2018-11-27T07:19:30.535Z,971.66
2018-11-27T07:20:30.524Z,971.66
2018-11-27T07:21:30.505Z,971.73
2018-11-27T07:22:30.491Z,971.73
2018-11-27T07:23:30.474Z,971.75
2018-11-27T07:24:30.461Z,971.77
2018-11-27T07:25:30.446Z,971.84
2018-11-27T07:26:30.431Z,971.83
2018-11-27T07:27:30.415Z,971.82
2018-11-27T07:28:30.402Z,971.89
2018-11-27T07:29:30.387Z,971.84
2018-11-27T07:30:30.372Z,971.87
2018-11-27T07:31:30.357Z,971.87
2018-11-27T07:32:30.341Z,971.88
2018-11-27T07:33:30.331Z,971.89
2018-11-27T07:34:30.313Z,971.91
2018-11-27T07:35:30.298Z,971.90
2018-11-27T07:36:30.282Z,971.93
2018-11-27T07:37:30.268Z,971.94
2018-11-27T07:38:30.252Z,971.95
2018-11-27T07:39:30.237Z,971.94
2018-11-27T07:40:30.224Z,971.91
2018-11-27T07:41:30.208Z,971.95
2018-11-27T07:42:30.230Z,971.99
2018-11-27T07:43:30.178Z,972.01
2018-11-27T07:44:30.163Z,972.02
2018-11-27T07:45:30.152Z,972.01
2018-11-27T07:46:30.134Z,972.04
2018-11-27T07:47:30.121Z,972.06
2018-11-27T07:48:30.106Z,972.06
2018-11-27T07:49:30.090Z,972.07
2018-11-27T07:50:30.077Z,972.11
2018-11-27T07:51:30.060Z,972.11
2018-11-27T07:52:30.045Z,972.11
2018-11-27T07:53:30.030Z,972.17
2018-11-27T07:54:30.017Z,972.14
2018-11-27T07:55:30.004Z,972.18
2018-11-27T07:56:29.988Z,972.12
2018-11-27T07:57:29.974Z,972.13
2018-11-27T07:58:29.957Z,972.16
2018-11-27T07:59:29.943Z,972.19
2018-11-27T08:00:29.929Z,972.20
2018-11-27T08:01:29.915Z,972.18
2018-11-27T08:02:29.899Z,972.15
2018-11-27T08:03:29.884Z,972.19
2018-11-27T08:04:29.869Z,972.17
2018-11-27T08:05:29.854Z,972.16
2018-11-27T08:06:29.839Z,972.14
2018-11-27T08:07:29.823Z,972.16
2018-11-27T08:08:29.811Z,972.15
2018-11-27T08:09:29.795Z,972.10
2018-11-27T08:10:29.780Z,972.14
2018-11-27T08:11:29.767Z,972.12
2018-11-27T08:12:29.752Z,972.18
2018-11-27T08:13:29.742Z,972.14
2018-11-27T08:14:29.721Z,972.17
2018-11-27T08:15:29.717Z,972.19
2018-11-27T08:16:29.692Z,972.21
2018-11-27T08:17:29.677Z,972.23
2018-11-27T08:18:29.662Z,972.22
2018-11-27T08:19:29.646Z,972.23
2018-11-27T08:20:29.634Z,972.29
2018-11-27T08:21:29.618Z,972.30
2018-11-27T08:22:29.602Z,972.32
2018-11-27T08:23:29.587Z,972.30
2018-11-27T08:24:29.575Z,972.29
2018-11-27T08:25:29.563Z,972.35
2018-11-27T08:26:29.543Z,972.34
2018-11-27T08:27:29.529Z,972.37
2018-11-27T08:28:29.515Z,972.37
2018-11-27T08:29:29.500Z,972.43
2018-11-27T08:30:29.492Z,972.44
2018-11-27T08:31:29.471Z,972.43
2018-11-27T08:32:29.455Z,972.46
2018-11-27T08:33:29.443Z,972.49
2018-11-27T08:34:29.428Z,972.51
2018-11-27T08:35:29.415Z,972.51
2018-11-27T08:36:29.397Z,972.53
2018-11-27T08:37:29.382Z,972.53
2018-11-27T08:38:29.368Z,972.54
2018-11-27T08:39:29.374Z,972.55
2018-11-27T08:40:29.347Z,972.52
2018-11-27T08:41:29.324Z,972.56
2018-11-27T08:42:29.308Z,972.58
2018-11-27T08:43:29.295Z,972.56
2018-11-27T08:44:29.280Z,972.56
2018-11-27T08:45:29.266Z,972.58
2018-11-27T08:46:29.255Z,972.59
2018-11-27T08:47:29.237Z,972.66
2018-11-27T08:48:29.221Z,972.65
2018-11-27T08:49:29.206Z,972.68
2018-11-27T08:50:29.197Z,972.65
2018-11-27T08:51:29.176Z,972.71
2018-11-27T08:52:29.162Z,972.73
2018-11-27T08:53:29.149Z,972.78
2018-11-27T08:54:29.134Z,972.78
2018-11-27T08:55:29.118Z,972.79
2018-11-27T08:56:29.106Z,972.82
2018-11-27T08:57:29.090Z,972.81
2018-11-27T08:58:29.073Z,972.81
2018-11-27T08:59:29.061Z,972.84
2018-11-27T09:00:29.046Z,972.86
2018-11-27T09:01:29.028Z,972.83
2018-11-27T09:02:29.024Z,972.84
2018-11-27T09:03:29.000Z,972.84
2018-11-27T09:04:28.987Z,972.85
2018-11-27T09:05:28.977Z,972.85
2018-11-27T09:06:28.956Z,972.81
2018-11-27T09:07:28.946Z,972.80
2018-11-27T09:08:28.927Z,972.84
2018-11-27T09:09:28.919Z,972.85
2018-11-27T09:10:28.900Z,972.86
2018-11-27T09:11:28.886Z,972.88
2018-11-27T09:12:28.869Z,972.88
2018-11-27T09:13:28.854Z,972.93
2018-11-27T09:14:28.839Z,972.94
2018-11-27T09:15:28.827Z,972.95
2018-11-27T09:16:28.813Z,972.99
2018-11-27T09:17:28.797Z,972.97
2018-11-27T09:18:28.783Z,973.04
2018-11-27T09:19:28.769Z,973.00
2018-11-27T09:20:28.755Z,973.02
2018-11-27T09:21:28.744Z,973.03
2018-11-27T09:22:28.725Z,973.04
2018-11-27T09:23:28.711Z,973.04
2018-11-27T09:24:28.713Z,973.03
2018-11-27T09:25:28.682Z,973.08
2018-11-27T09:26:28.666Z,973.07
2018-11-27T09:27:28.653Z,973.09
2018-11-27T09:28:28.639Z,973.06
2018-11-27T09:29:28.624Z,973.10
2018-11-27T09:30:28.610Z,973.13
2018-11-27T09:31:28.595Z,973.10
2018-11-27T09:32:28.581Z,973.14
2018-11-27T09:33:28.566Z,973.13
2018-11-27T09:34:28.633Z,973.19
2018-11-27T09:35:28.537Z,973.14
2018-11-27T09:36:28.522Z,973.11
2018-11-27T09:37:28.507Z,973.14
2018-11-27T09:38:28.494Z,973.13
2018-11-27T09:39:28.479Z,973.11
2018-11-27T09:40:28.464Z,973.10
2018-11-27T09:41:28.450Z,973.11
2018-11-27T09:42:28.434Z,973.09
2018-11-27T09:43:28.422Z,973.11
2018-11-27T09:44:28.405Z,973.12
2018-11-27T09:45:28.492Z,973.10
2018-11-27T09:46:28.378Z,973.13
2018-11-27T09:47:28.364Z,973.11
2018-11-27T09:48:28.350Z,973.12
2018-11-27T09:49:28.335Z,973.08
2018-11-27T09:50:28.319Z,973.07
2018-11-27T09:51:28.306Z,973.08
2018-11-27T09:52:28.289Z,973.05
2018-11-27T09:53:28.274Z,973.10
2018-11-27T09:54:28.261Z,973.04
2018-11-27T09:55:28.247Z,973.04
2018-11-27T09:56:28.232Z,973.06
2018-11-27T09:57:28.216Z,973.07
2018-11-27T09:58:28.204Z,973.06
2018-11-27T09:59:28.188Z,973.04
2018-11-27T10:00:28.176Z,973.02
2018-11-27T10:01:28.161Z,973.02
2018-11-27T10:02:28.145Z,973.03
2018-11-27T10:03:28.130Z,973.08
2018-11-27T10:04:28.117Z,973.13
2018-11-27T10:05:28.101Z,973.11
2018-11-27T10:06:28.088Z,973.11
2018-11-27T10:07:28.071Z,973.13
2018-11-27T10:08:28.057Z,973.11
2018-11-27T10:09:28.042Z,973.13
2018-11-27T10:10:28.030Z,973.14
2018-11-27T10:11:28.014Z,973.16
2018-11-27T10:12:28.001Z,973.19
2018-11-27T10:13:27.985Z,973.15
2018-11-27T10:14:27.974Z,973.14
2018-11-27T10:15:27.960Z,973.19
2018-11-27T10:16:27.942Z,973.25
2018-11-27T10:17:27.928Z,973.25
2018-11-27T10:18:27.914Z,973.21
2018-11-27T10:19:28.300Z,973.23
2018-11-27T10:20:27.885Z,973.22
2018-11-27T10:21:27.870Z,973.22
2018-11-27T10:22:27.855Z,973.24
2018-11-27T10:23:27.841Z,973.24
2018-11-27T10:24:27.828Z,973.20
2018-11-27T10:25:27.813Z,973.18
2018-11-27T10:26:27.797Z,973.22
2018-11-27T10:27:27.785Z,973.19
2018-11-27T10:28:31.986Z,973.20
2018-11-27T10:29:27.753Z,973.18
2018-11-27T10:30:27.741Z,973.20
2018-11-27T10:31:27.728Z,973.18
2018-11-27T10:32:27.710Z,973.18
2018-11-27T10:33:27.697Z,973.17
2018-11-27T10:34:27.683Z,973.16
2018-11-27T10:35:27.670Z,973.17
2018-11-27T10:36:27.655Z,973.20
2018-11-27T10:37:27.638Z,973.22
2018-11-27T10:38:27.628Z,973.21
2018-11-27T10:39:27.610Z,973.22
2018-11-27T10:40:27.596Z,973.14
2018-11-27T10:41:27.580Z,973.16
2018-11-27T10:42:30.131Z,973.16
2018-11-27T10:43:27.551Z,973.18
2018-11-27T10:44:27.538Z,973.19
2018-11-27T10:45:27.524Z,973.18
2018-11-27T10:46:27.508Z,973.14
2018-11-27T10:47:28.395Z,973.15
2018-11-27T10:48:27.482Z,973.16
2018-11-27T10:49:27.465Z,973.14
2018-11-27T10:50:27.454Z,973.14
2018-11-27T10:51:27.439Z,973.11
2018-11-27T10:52:27.427Z,973.12
2018-11-27T10:53:27.410Z,973.11
2018-11-27T10:54:27.395Z,973.08
2018-11-27T10:55:27.381Z,973.13
2018-11-27T10:56:27.367Z,973.11
2018-11-27T10:57:27.357Z,973.11
2018-11-27T10:58:27.340Z,973.12
2018-11-27T10:59:27.323Z,973.09
2018-11-27T11:00:27.311Z,973.11
2018-11-27T11:01:27.297Z,973.09
2018-11-27T11:02:27.282Z,973.11
2018-11-27T11:03:27.267Z,973.13
2018-11-27T11:04:27.253Z,973.16
2018-11-27T11:05:27.794Z,973.12
2018-11-27T11:06:27.224Z,973.15
2018-11-27T11:07:27.211Z,973.19
2018-11-27T11:08:27.198Z,973.18
2018-11-27T11:09:27.182Z,973.15
2018-11-27T11:10:27.169Z,973.18
2018-11-27T11:11:27.153Z,973.21
2018-11-27T11:12:27.141Z,973.17
2018-11-27T11:13:27.125Z,973.20
2018-11-27T11:14:27.113Z,973.20
2018-11-27T11:15:27.125Z,973.20
2018-11-27T11:16:27.085Z,973.21
2018-11-27T11:17:27.069Z,973.22
2018-11-27T11:18:27.058Z,973.22
2018-11-27T11:19:27.043Z,973.24
2018-11-27T11:20:27.030Z,973.27
2018-11-27T11:21:27.016Z,973.26
2018-11-27T11:22:27.001Z,973.26
2018-11-27T11:23:26.987Z,973.31
2018-11-27T11:24:26.973Z,973.35
2018-11-27T11:25:26.959Z,973.32
2018-11-27T11:26:26.946Z,973.35
2018-11-27T11:27:26.934Z,973.37
2018-11-27T11:28:26.919Z,973.33
2018-11-27T11:29:26.903Z,973.35
2018-11-27T11:30:26.887Z,973.41
2018-11-27T11:31:26.875Z,973.43
2018-11-27T11:32:26.861Z,973.38
2018-11-27T11:33:26.849Z,973.42
2018-11-27T11:34:26.839Z,973.42
2018-11-27T11:35:26.819Z,973.45
2018-11-27T11:36:26.806Z,973.45
2018-11-27T11:37:26.791Z,973.47
2018-11-27T11:38:26.780Z,973.49
2018-11-27T11:39:26.763Z,973.47
2018-11-27T11:40:26.751Z,973.47
2018-11-27T11:41:31.306Z,973.51
2018-11-27T11:42:26.723Z,973.49
2018-11-27T11:43:26.707Z,973.49
2018-11-27T11:44:26.692Z,973.52
2018-11-27T11:45:26.680Z,973.50
2018-11-27T11:46:26.667Z,973.52
2018-11-27T11:47:26.653Z,973.55
2018-11-27T11:48:26.639Z,973.56
2018-11-27T11:49:26.624Z,973.61
2018-11-27T11:50:26.611Z,973.58
2018-11-27T11:51:26.599Z,973.58
2018-11-27T11:52:26.585Z,973.63
2018-11-27T11:53:26.569Z,973.57
2018-11-27T11:54:26.555Z,973.61
2018-11-27T11:55:26.541Z,973.60
2018-11-27T11:56:26.528Z,973.60
2018-11-27T11:57:26.511Z,973.61
2018-11-27T11:58:26.500Z,973.61
2018-11-27T11:59:28.789Z,973.60
2018-11-27T12:00:26.471Z,973.61
2018-11-27T12:01:26.457Z,973.63
2018-11-27T12:02:26.916Z,973.67
2018-11-27T12:03:26.429Z,973.64
2018-11-27T12:04:26.415Z,973.68
2018-11-27T12:05:26.402Z,973.68
2018-11-27T12:06:26.386Z,973.73
2018-11-27T12:07:26.370Z,973.68
2018-11-27T12:08:26.359Z,973.74
2018-11-27T12:09:26.344Z,973.75
2018-11-27T12:10:26.328Z,973.71
2018-11-27T12:11:26.316Z,973.72
2018-11-27T12:12:26.301Z,973.69
2018-11-27T12:13:26.287Z,973.71
2018-11-27T12:14:26.274Z,973.71
2018-11-27T12:15:26.258Z,973.70
2018-11-27T12:16:26.247Z,973.69
2018-11-27T12:17:26.231Z,973.67
2018-11-27T12:18:26.219Z,973.68
2018-11-27T12:19:26.204Z,973.71
2018-11-27T12:20:26.190Z,973.70
2018-11-27T12:21:26.175Z,973.70
2018-11-27T12:22:26.161Z,973.74
2018-11-27T12:23:26.148Z,973.73
2018-11-27T12:24:26.133Z,973.77
2018-11-27T12:25:26.118Z,973.73
2018-11-27T12:26:26.106Z,973.79
2018-11-27T12:27:26.092Z,973.77
2018-11-27T12:28:26.079Z,973.82